createdAt,value
2019-05-18T00:00:09.847Z,69.30
2019-05-18T00:02:38.401Z,74.47
2019-05-18T00:05:07.354Z,82.30
2019-05-18T00:07:35.984Z,68.27
2019-05-18T00:10:05.432Z,55.83
2019-05-18T00:12:33.955Z,54.83
2019-05-18T00:15:02.564Z,45.73
2019-05-18T00:17:31.127Z,43.57
2019-05-18T00:19:59.688Z,39.80
2019-05-18T00:22:28.175Z,43.60
2019-05-18T00:24:56.582Z,50.27
2019-05-18T00:27:25.124Z,73.63
2019-05-18T00:29:53.682Z,65.13
2019-05-18T00:32:22.178Z,79.53
2019-05-18T00:34:50.804Z,67.07
2019-05-18T00:37:19.384Z,54.30
2019-05-18T00:39:47.870Z,40.07
2019-05-18T00:42:16.431Z,35.17
2019-05-18T00:44:44.993Z,35.07
2019-05-18T00:47:13.472Z,35.87
2019-05-18T00:49:42.168Z,43.13
2019-05-18T00:52:10.601Z,47.80
2019-05-18T00:54:39.088Z,64.43
2019-05-18T00:57:07.645Z,55.90
2019-05-18T00:59:37.054Z,47.83
2019-05-18T01:02:05.536Z,55.00
2019-05-18T01:04:34.071Z,52.13
2019-05-18T01:07:02.635Z,47.13
2019-05-18T01:09:31.165Z,46.07
2019-05-18T01:11:59.781Z,55.47
2019-05-18T01:14:28.541Z,78.27
2019-05-18T01:16:57.038Z,68.67
2019-05-18T01:19:25.566Z,51.13
2019-05-18T01:21:53.979Z,32.30
2019-05-18T01:24:23.136Z,33.30
2019-05-18T01:26:51.599Z,30.43
2019-05-18T01:29:20.106Z,30.03
2019-05-18T01:31:48.578Z,30.10
2019-05-18T01:34:17.203Z,30.97
2019-05-18T01:36:45.772Z,37.40
2019-05-18T01:39:14.637Z,43.47
2019-05-18T01:41:43.191Z,61.03
2019-05-18T01:44:11.676Z,81.23
2019-05-18T01:46:41.035Z,77.23
2019-05-18T01:49:09.646Z,81.33
2019-05-18T01:51:38.132Z,67.07
2019-05-18T01:54:06.616Z,58.67
2019-05-18T01:56:35.235Z,43.67
2019-05-18T01:59:03.654Z,46.03
2019-05-18T02:01:33.098Z,64.87
2019-05-18T02:04:01.657Z,57.83
2019-05-18T02:06:30.142Z,65.00
2019-05-18T02:08:58.571Z,57.27
2019-05-18T02:11:27.127Z,71.00
2019-05-18T02:13:55.633Z,77.10
2019-05-18T02:16:24.111Z,74.33
2019-05-18T02:18:52.655Z,81.87
2019-05-18T02:21:21.236Z,83.57
2019-05-18T02:23:49.799Z,66.47
2019-05-18T02:26:18.290Z,70.93
2019-05-18T02:28:46.936Z,68.93
2019-05-18T02:31:15.450Z,29.07
2019-05-18T02:33:44.041Z,29.10
2019-05-18T02:36:12.539Z,28.20
2019-05-18T02:38:41.091Z,26.90
2019-05-18T02:41:09.702Z,26.73
2019-05-18T02:43:38.261Z,27.40
2019-05-18T02:46:06.831Z,25.00
2019-05-18T02:48:48.563Z,25.87
2019-05-18T02:51:05.514Z,27.03
2019-05-18T02:53:34.049Z,27.17
2019-05-18T02:56:02.722Z,29.63
2019-05-18T02:58:31.248Z,26.83
2019-05-18T03:00:59.831Z,26.40
2019-05-18T03:03:29.414Z,24.70
2019-05-18T03:05:57.906Z,26.83
2019-05-18T03:08:26.379Z,25.83
2019-05-18T03:10:55.009Z,26.40
2019-05-18T03:13:23.548Z,27.23
2019-05-18T03:15:51.990Z,25.53
2019-05-18T03:18:20.677Z,27.13
2019-05-18T03:20:49.158Z,26.03
2019-05-18T03:23:17.803Z,28.30
2019-05-18T03:25:46.441Z,28.23
2019-05-18T03:28:15.073Z,28.10
2019-05-18T03:30:43.624Z,26.77
2019-05-18T03:33:12.189Z,26.13
2019-05-18T03:35:40.623Z,25.17
2019-05-18T03:38:09.126Z,27.57
2019-05-18T03:40:37.665Z,25.53
2019-05-18T03:43:06.148Z,26.53
2019-05-18T03:45:34.629Z,26.33
2019-05-18T03:48:03.178Z,26.90
2019-05-18T03:50:31.589Z,26.00
2019-05-18T03:53:00.083Z,27.23
2019-05-18T03:55:28.764Z,27.33
2019-05-18T03:57:57.312Z,29.07
2019-05-18T04:00:25.895Z,27.07
2019-05-18T04:02:54.534Z,27.73
2019-05-18T04:05:23.976Z,27.80
2019-05-18T04:07:52.490Z,27.57
2019-05-18T04:10:26.884Z,26.50
2019-05-18T04:12:55.432Z,27.00
2019-05-18T04:15:23.843Z,25.73
2019-05-18T04:17:52.409Z,25.87
2019-05-18T04:20:20.869Z,24.40
2019-05-18T04:22:49.354Z,25.87
2019-05-18T04:25:17.857Z,25.97
2019-05-18T04:27:46.405Z,26.70
2019-05-18T04:30:14.966Z,25.57
2019-05-18T04:32:43.463Z,26.77
2019-05-18T04:35:11.999Z,26.17
2019-05-18T04:37:40.486Z,25.33
2019-05-18T04:40:09.447Z,27.67
2019-05-18T04:42:37.951Z,25.80
2019-05-18T04:45:06.922Z,24.67
2019-05-18T04:47:35.549Z,119.33
2019-05-18T04:50:06.488Z,115.27
2019-05-18T04:52:35.134Z,115.03
2019-05-18T04:55:04.202Z,113.43
2019-05-18T04:57:32.663Z,115.00
2019-05-18T05:00:01.214Z,115.30
2019-05-18T05:02:29.669Z,115.10
2019-05-18T05:04:58.342Z,118.63
2019-05-18T05:07:27.789Z,116.83
2019-05-18T05:09:56.228Z,116.13
2019-05-18T05:12:24.807Z,120.73
2019-05-18T05:14:53.237Z,116.07
2019-05-18T05:17:21.878Z,115.83
2019-05-18T05:19:50.458Z,114.33
2019-05-18T05:22:19.030Z,112.57
2019-05-18T05:24:47.676Z,115.03
2019-05-18T05:27:16.107Z,116.47
2019-05-18T05:29:44.744Z,113.63
2019-05-18T05:32:13.387Z,116.27
2019-05-18T05:34:41.968Z,111.23
2019-05-18T05:37:10.497Z,114.87
2019-05-18T05:39:39.213Z,114.97
2019-05-18T05:42:07.697Z,112.90
2019-05-18T05:44:36.309Z,115.40
2019-05-18T05:47:04.809Z,113.97
2019-05-18T05:49:33.366Z,114.27
2019-05-18T05:52:01.930Z,116.43
2019-05-18T05:54:30.558Z,114.33
2019-05-18T05:56:59.112Z,117.97
2019-05-18T05:59:27.643Z,116.70
2019-05-18T06:01:56.275Z,165.03
2019-05-18T06:04:24.813Z,112.73
2019-05-18T06:06:53.341Z,115.17
2019-05-18T06:09:22.857Z,112.77
2019-05-18T06:11:51.337Z,114.47
2019-05-18T06:14:19.875Z,113.17
2019-05-18T06:16:48.465Z,114.63
2019-05-18T06:19:17.035Z,111.70
2019-05-18T06:21:45.597Z,112.17
2019-05-18T06:24:14.154Z,108.93
2019-05-18T06:26:42.638Z,94.73
2019-05-18T06:29:11.207Z,84.23
2019-05-18T06:31:39.741Z,91.83
2019-05-18T06:34:08.333Z,89.93
2019-05-18T06:36:36.870Z,73.87
2019-05-18T06:39:07.113Z,75.77
2019-05-18T06:41:35.608Z,39.57
2019-05-18T06:44:04.555Z,72.23
2019-05-18T06:46:33.035Z,83.43
2019-05-18T06:49:01.545Z,75.57
2019-05-18T06:51:30.169Z,93.77
2019-05-18T06:53:58.710Z,71.67
2019-05-18T06:56:27.374Z,49.33
2019-05-18T06:58:55.855Z,23.10
2019-05-18T07:01:24.466Z,73.53
2019-05-18T07:03:53.063Z,29.27
2019-05-18T07:06:21.593Z,27.00
2019-05-18T07:08:50.303Z,22.90
2019-05-18T07:11:19.904Z,21.17
2019-05-18T07:13:48.495Z,21.77
2019-05-18T07:16:17.019Z,23.90
2019-05-18T07:18:45.597Z,22.67
2019-05-18T07:21:21.762Z,22.87
2019-05-18T07:23:44.591Z,21.07
2019-05-18T07:26:13.145Z,22.40
2019-05-18T07:28:41.873Z,23.03
2019-05-18T07:31:10.449Z,17.48
2019-05-18T07:33:39.109Z,22.87
2019-05-18T07:36:07.663Z,21.83
2019-05-18T07:38:36.329Z,23.07
2019-05-18T07:41:04.935Z,22.52
2019-05-18T07:43:33.577Z,23.13
2019-05-18T07:46:02.147Z,22.32
2019-05-18T07:48:30.721Z,21.63
2019-05-18T07:50:59.287Z,23.03
2019-05-18T07:53:27.879Z,23.42
2019-05-18T07:55:56.370Z,22.20
2019-05-18T07:58:24.991Z,20.00
2019-05-18T08:00:53.548Z,20.08
2019-05-18T08:03:22.182Z,19.57
2019-05-18T08:05:50.778Z,21.80
2019-05-18T08:08:19.287Z,20.70
2019-05-18T08:10:47.827Z,21.35
2019-05-18T08:13:17.416Z,18.35
2019-05-18T08:15:45.999Z,19.85
2019-05-18T08:18:14.652Z,19.40
2019-05-18T08:20:43.175Z,18.87
2019-05-18T08:23:11.725Z,19.67
2019-05-18T08:25:40.288Z,19.50
2019-05-18T08:28:08.758Z,20.48
2019-05-18T08:30:37.319Z,20.47
2019-05-18T08:33:05.851Z,19.55
2019-05-18T08:35:34.351Z,18.82
2019-05-18T08:38:02.814Z,17.75
2019-05-18T08:40:31.469Z,18.23
2019-05-18T08:42:59.957Z,19.32
2019-05-18T08:45:28.449Z,16.25
2019-05-18T08:47:57.063Z,13.75
2019-05-18T08:50:25.544Z,14.87
2019-05-18T08:52:54.105Z,12.20
2019-05-18T08:55:22.591Z,13.28
2019-05-18T08:57:51.088Z,13.38
2019-05-18T09:00:19.680Z,13.22
2019-05-18T09:02:48.238Z,10.95
2019-05-18T09:05:16.729Z,12.53
2019-05-18T09:07:45.236Z,10.85
2019-05-18T09:10:14.803Z,11.48
2019-05-18T09:12:43.319Z,9.88
2019-05-18T09:15:12.778Z,9.83
2019-05-18T09:17:42.292Z,9.90
2019-05-18T09:20:10.739Z,11.25
2019-05-18T09:22:39.307Z,8.73
2019-05-18T09:25:09.149Z,10.82
2019-05-18T09:27:37.721Z,10.63
2019-05-18T09:30:07.356Z,9.20
2019-05-18T09:32:36.031Z,10.08
2019-05-18T09:35:06.462Z,9.30
2019-05-18T09:37:34.951Z,10.05
2019-05-18T09:40:05.627Z,10.43
2019-05-18T09:42:34.078Z,12.60
2019-05-18T09:45:02.633Z,11.40
2019-05-18T09:47:31.183Z,11.35
2019-05-18T09:49:59.677Z,11.28
2019-05-18T09:52:44.137Z,10.43
2019-05-18T09:54:58.324Z,10.82
2019-05-18T09:57:26.728Z,11.75
2019-05-18T09:59:55.209Z,11.85
2019-05-18T10:02:23.687Z,12.25
2019-05-18T10:04:52.695Z,11.70
2019-05-18T10:07:21.113Z,10.82
2019-05-18T10:09:49.752Z,9.83
2019-05-18T10:12:18.363Z,11.65
2019-05-18T10:14:46.860Z,7.97
2019-05-18T10:17:16.422Z,9.93
2019-05-18T10:19:44.901Z,9.95
2019-05-18T10:22:13.392Z,8.60
2019-05-18T10:24:42.068Z,8.18
2019-05-18T10:27:10.545Z,9.25
2019-05-18T10:29:39.044Z,6.70
2019-05-18T10:32:07.673Z,8.85
2019-05-18T10:34:36.077Z,9.68
2019-05-18T10:37:04.557Z,9.00
2019-05-18T10:39:33.159Z,9.58
2019-05-18T10:42:01.654Z,9.08
2019-05-18T10:44:30.151Z,9.13
2019-05-18T10:46:58.752Z,10.10
2019-05-18T10:49:27.310Z,10.45
2019-05-18T10:51:55.811Z,11.10
2019-05-18T10:54:24.445Z,9.73
2019-05-18T10:56:53.041Z,10.10
2019-05-18T10:59:21.448Z,10.93
2019-05-18T11:01:49.981Z,7.53
2019-05-18T11:04:18.458Z,9.93
2019-05-18T11:06:47.017Z,7.08
2019-05-18T11:09:15.553Z,10.18
2019-05-18T11:11:44.103Z,8.78
2019-05-18T11:14:12.598Z,9.83
2019-05-18T11:16:41.273Z,10.65
2019-05-18T11:19:10.624Z,10.10
2019-05-18T11:21:40.761Z,9.93
2019-05-18T11:24:09.344Z,9.95
2019-05-18T11:26:37.898Z,10.58
2019-05-18T11:29:06.475Z,11.03
2019-05-18T11:31:34.960Z,9.48
2019-05-18T11:34:03.451Z,10.13
2019-05-18T11:36:32.020Z,11.00
2019-05-18T11:39:00.821Z,11.20
2019-05-18T11:41:29.307Z,10.43
2019-05-18T11:43:57.875Z,11.48
2019-05-18T11:46:26.690Z,13.35
2019-05-18T11:48:55.250Z,12.37
2019-05-18T11:51:23.822Z,11.40
2019-05-18T11:53:58.460Z,11.78
2019-05-18T11:56:22.679Z,11.48
2019-05-18T11:58:51.677Z,11.70
2019-05-18T12:01:20.356Z,10.30
2019-05-18T12:03:48.850Z,12.25
2019-05-18T12:06:17.439Z,12.53
2019-05-18T12:08:45.987Z,10.05
2019-05-18T12:11:15.128Z,11.97
2019-05-18T12:13:43.876Z,11.57
2019-05-18T12:16:12.543Z,12.00
2019-05-18T12:18:41.189Z,10.08
2019-05-18T12:21:10.862Z,9.65
2019-05-18T12:23:39.521Z,8.70
2019-05-18T12:26:08.157Z,8.60
2019-05-18T12:28:36.708Z,9.98
2019-05-18T12:31:05.238Z,10.35
2019-05-18T12:33:33.783Z,11.20
2019-05-18T12:36:02.408Z,9.20
2019-05-18T12:38:30.890Z,9.60
2019-05-18T12:40:59.435Z,8.20
2019-05-18T12:43:28.097Z,12.80
2019-05-18T12:45:56.576Z,9.50
2019-05-18T12:48:25.127Z,8.58
2019-05-18T12:50:53.804Z,9.15
2019-05-18T12:53:22.380Z,7.97
2019-05-18T12:55:50.960Z,10.00
2019-05-18T12:58:19.490Z,7.53
2019-05-18T13:00:47.984Z,7.87
2019-05-18T13:03:16.467Z,7.28
2019-05-18T13:05:45.006Z,7.95
2019-05-18T13:08:13.495Z,9.25
2019-05-18T13:10:41.966Z,9.35
2019-05-18T13:13:10.943Z,8.60
2019-05-18T13:15:39.490Z,8.68
2019-05-18T13:18:07.973Z,8.00
2019-05-18T13:20:36.459Z,6.87
2019-05-18T13:23:05.917Z,7.72
2019-05-18T13:25:34.417Z,7.05
2019-05-18T13:28:02.933Z,6.80
2019-05-18T13:30:31.317Z,6.58
2019-05-18T13:32:59.881Z,6.40
2019-05-18T13:35:28.385Z,6.55
2019-05-18T13:37:56.897Z,6.67
2019-05-18T13:40:25.609Z,6.65
2019-05-18T13:42:54.223Z,6.62
2019-05-18T13:45:22.961Z,6.83
2019-05-18T13:47:51.625Z,6.22
2019-05-18T13:50:20.234Z,5.80
2019-05-18T13:52:48.732Z,5.90
2019-05-18T13:55:17.367Z,6.87
2019-05-18T13:57:45.943Z,7.08
2019-05-18T14:00:16.077Z,7.15
2019-05-18T14:02:44.682Z,8.05
2019-05-18T14:05:13.243Z,6.85
2019-05-18T14:07:41.647Z,7.40
2019-05-18T14:10:12.461Z,7.75
2019-05-18T14:12:40.470Z,9.03
2019-05-18T14:15:09.023Z,6.90
2019-05-18T14:17:37.569Z,7.35
2019-05-18T14:20:06.132Z,7.05
2019-05-18T14:22:34.530Z,6.35
2019-05-18T14:25:18.846Z,6.53
2019-05-18T14:27:36.196Z,7.30
2019-05-18T14:30:06.010Z,7.15
2019-05-18T14:32:34.501Z,5.75
2019-05-18T14:35:02.997Z,6.45
2019-05-18T14:37:31.533Z,5.30
2019-05-18T14:40:00.037Z,5.33
2019-05-18T14:42:28.625Z,5.60
2019-05-18T14:44:57.218Z,6.10
2019-05-18T14:47:27.575Z,5.87
2019-05-18T14:49:55.862Z,5.78
2019-05-18T14:52:24.620Z,6.15
2019-05-18T14:54:53.187Z,5.17
2019-05-18T14:57:23.678Z,5.83
2019-05-18T14:59:51.966Z,5.87
2019-05-18T15:02:20.447Z,5.83
2019-05-18T15:04:48.875Z,5.85
2019-05-18T15:07:17.377Z,4.83
2019-05-18T15:09:46.251Z,5.25
2019-05-18T15:12:15.163Z,5.25
2019-05-18T15:14:43.726Z,5.25
2019-05-18T15:17:12.269Z,5.87
2019-05-18T15:19:40.814Z,6.35
2019-05-18T15:22:09.428Z,5.75
2019-05-18T15:24:37.921Z,5.53
2019-05-18T15:27:07.315Z,6.03
2019-05-18T15:29:35.956Z,5.17
2019-05-18T15:32:04.500Z,5.80
2019-05-18T15:34:32.867Z,5.12
2019-05-18T15:37:01.542Z,5.65
2019-05-18T15:39:29.981Z,5.60
2019-05-18T15:41:58.557Z,5.30
2019-05-18T15:44:27.102Z,5.15
2019-05-18T15:46:55.682Z,6.30
2019-05-18T15:49:24.297Z,5.47
2019-05-18T15:51:53.072Z,5.80
2019-05-18T15:54:21.660Z,6.50
2019-05-18T15:56:50.337Z,5.47
2019-05-18T15:59:18.985Z,4.90
2019-05-18T16:01:47.672Z,5.47
2019-05-18T16:04:16.246Z,5.33
2019-05-18T16:06:44.880Z,5.53
2019-05-18T16:09:13.365Z,5.78
2019-05-18T16:11:41.941Z,6.20
2019-05-18T16:14:10.562Z,5.37
2019-05-18T16:16:39.187Z,6.12
2019-05-18T16:19:07.816Z,5.95
2019-05-18T16:21:36.523Z,6.53
2019-05-18T16:24:05.082Z,5.40
2019-05-18T16:26:33.770Z,5.95
2019-05-18T16:29:03.257Z,5.40
2019-05-18T16:31:31.747Z,6.17
2019-05-18T16:34:00.311Z,5.53
2019-05-18T16:36:28.861Z,5.10
2019-05-18T16:38:57.551Z,5.53
2019-05-18T16:41:28.041Z,5.33
2019-05-18T16:43:56.409Z,5.28
2019-05-18T16:46:24.946Z,4.85
2019-05-18T16:48:53.647Z,6.33
2019-05-18T16:51:22.219Z,5.67
2019-05-18T16:53:50.782Z,5.47
2019-05-18T16:56:19.437Z,5.15
2019-05-18T16:58:48.068Z,5.30
2019-05-18T17:01:16.636Z,7.17
2019-05-18T17:03:45.112Z,5.75
2019-05-18T17:06:16.386Z,5.70
2019-05-18T17:08:44.131Z,5.37
2019-05-18T17:11:12.802Z,6.25
2019-05-18T17:13:41.403Z,5.60
2019-05-18T17:16:09.952Z,7.05
2019-05-18T17:18:38.430Z,6.08
2019-05-18T17:21:06.978Z,8.35
2019-05-18T17:23:35.666Z,5.75
2019-05-18T17:26:04.313Z,6.67
2019-05-18T17:28:32.878Z,6.92
2019-05-18T17:31:02.453Z,6.80
2019-05-18T17:33:30.999Z,120.50
2019-05-18T17:36:00.704Z,126.40
2019-05-18T17:38:29.424Z,120.57
2019-05-18T17:40:57.973Z,125.05
2019-05-18T17:43:26.566Z,133.22
2019-05-18T17:45:55.060Z,127.25
2019-05-18T17:48:23.635Z,123.25
2019-05-18T17:50:52.263Z,122.22
2019-05-18T17:53:20.797Z,119.37
2019-05-18T17:55:49.394Z,120.08
2019-05-18T17:58:17.988Z,118.17
2019-05-18T18:00:46.551Z,122.28
2019-05-18T18:03:15.208Z,120.05
2019-05-18T18:05:43.851Z,125.20
2019-05-18T18:08:12.411Z,118.45
2019-05-18T18:10:41.035Z,120.47
2019-05-18T18:13:09.703Z,123.28
2019-05-18T18:15:38.403Z,118.00
2019-05-18T18:18:06.956Z,117.05
2019-05-18T18:20:37.161Z,113.30
2019-05-18T18:23:06.127Z,113.52
2019-05-18T18:25:34.775Z,115.72
2019-05-18T18:28:03.281Z,115.67
2019-05-18T18:30:31.924Z,117.07
2019-05-18T18:33:01.435Z,111.80
2019-05-18T18:35:30.031Z,113.63
2019-05-18T18:37:58.591Z,113.97
2019-05-18T18:40:27.277Z,114.13
2019-05-18T18:42:55.855Z,114.90
2019-05-18T18:45:24.383Z,111.73
2019-05-18T18:47:53.020Z,112.40
2019-05-18T18:50:21.604Z,108.33
2019-05-18T18:52:50.235Z,111.20
2019-05-18T18:55:18.971Z,110.70
2019-05-18T18:57:47.501Z,111.57
2019-05-18T19:00:17.718Z,131.67
2019-05-18T19:02:46.286Z,113.33
2019-05-18T19:05:14.780Z,118.93
2019-05-18T19:07:43.374Z,118.43
2019-05-18T19:10:11.992Z,112.27
2019-05-18T19:12:40.547Z,112.30
2019-05-18T19:15:09.236Z,112.73
2019-05-18T19:17:37.950Z,112.47
2019-05-18T19:20:06.866Z,114.60
2019-05-18T19:22:35.388Z,141.90
2019-05-18T19:25:04.141Z,117.93
2019-05-18T19:27:32.770Z,113.53
2019-05-18T19:30:01.346Z,113.50
2019-05-18T19:32:29.824Z,115.00
2019-05-18T19:34:59.623Z,114.93
2019-05-18T19:37:28.137Z,109.70
2019-05-18T19:39:56.882Z,110.40
2019-05-18T19:42:25.601Z,112.20
2019-05-18T19:44:54.018Z,112.50
2019-05-18T19:47:22.955Z,103.03
2019-05-18T19:49:51.709Z,103.37
2019-05-18T19:52:20.269Z,110.83
2019-05-18T19:54:48.624Z,107.43
2019-05-18T19:57:17.143Z,107.37
2019-05-18T19:59:45.852Z,109.53
2019-05-18T20:02:18.211Z,109.40
2019-05-18T20:05:03.932Z,121.70
2019-05-18T20:07:14.875Z,105.00
2019-05-18T20:09:43.447Z,106.90
2019-05-18T20:12:12.092Z,108.30
2019-05-18T20:14:40.663Z,115.30
2019-05-18T20:17:09.600Z,112.70
2019-05-18T20:19:39.658Z,117.13
2019-05-18T20:22:08.707Z,111.47
2019-05-18T20:24:37.168Z,112.20
2019-05-18T20:27:05.732Z,115.30
2019-05-18T20:29:36.370Z,118.63
2019-05-18T20:32:04.630Z,117.07
2019-05-18T20:34:32.891Z,116.67
2019-05-18T20:37:02.403Z,115.93
2019-05-18T20:39:30.700Z,113.33
2019-05-18T20:41:59.212Z,111.17
2019-05-18T20:44:27.762Z,111.20
2019-05-18T20:46:56.334Z,112.37
2019-05-18T20:49:24.959Z,115.40
2019-05-18T20:51:53.664Z,111.57
2019-05-18T20:54:21.912Z,110.43
2019-05-18T20:56:50.451Z,111.43
2019-05-18T20:59:19.082Z,113.53
2019-05-18T21:01:47.509Z,110.63
2019-05-18T21:04:16.016Z,114.80
2019-05-18T21:06:45.569Z,112.23
2019-05-18T21:09:14.108Z,131.47
2019-05-18T21:11:42.710Z,110.40
2019-05-18T21:14:11.466Z,113.47
2019-05-18T21:16:40.305Z,111.23
2019-05-18T21:19:08.868Z,129.83
2019-05-18T21:21:37.389Z,111.40
2019-05-18T21:24:05.892Z,117.53
2019-05-18T21:26:34.491Z,112.27
2019-05-18T21:29:03.066Z,111.57
2019-05-18T21:31:32.253Z,112.50
2019-05-18T21:34:00.806Z,115.17
2019-05-18T21:36:29.221Z,113.93
2019-05-18T21:38:58.732Z,112.03
2019-05-18T21:41:29.555Z,121.03
2019-05-18T21:43:57.782Z,111.83
2019-05-18T21:46:25.974Z,111.63
2019-05-18T21:48:54.281Z,111.23
2019-05-18T21:51:22.714Z,108.03
2019-05-18T21:53:51.136Z,110.03
2019-05-18T21:56:20.112Z,111.40
2019-05-18T21:58:49.045Z,175.60
2019-05-18T22:01:18.072Z,151.07
2019-05-18T22:03:48.310Z,108.30
2019-05-18T22:06:16.686Z,106.73
2019-05-18T22:08:45.105Z,105.43
2019-05-18T22:11:13.665Z,106.60
2019-05-18T22:13:42.090Z,106.90
2019-05-18T22:16:10.538Z,105.53
2019-05-18T22:18:39.134Z,104.80
2019-05-18T22:21:07.772Z,106.23
2019-05-18T22:23:36.274Z,108.40
2019-05-18T22:26:04.513Z,106.50
2019-05-18T22:28:32.938Z,107.70
2019-05-18T22:31:01.194Z,110.23
2019-05-18T22:33:29.697Z,107.90
2019-05-18T22:35:57.950Z,107.97
2019-05-18T22:38:26.438Z,107.23
2019-05-18T22:40:56.013Z,106.37
2019-05-18T22:43:24.336Z,106.63
2019-05-18T22:45:52.826Z,106.17
2019-05-18T22:48:21.454Z,107.07
2019-05-18T22:50:49.875Z,104.93
2019-05-18T22:53:18.321Z,106.83
2019-05-18T22:55:46.899Z,106.47
2019-05-18T22:58:15.315Z,105.40
2019-05-18T23:00:44.212Z,108.17
2019-05-18T23:03:12.770Z,108.30
2019-05-18T23:05:41.348Z,106.53
2019-05-18T23:08:09.867Z,109.47
2019-05-18T23:10:38.358Z,106.83
2019-05-18T23:13:06.932Z,108.77
2019-05-18T23:15:36.067Z,113.47
2019-05-18T23:18:04.651Z,112.80
2019-05-18T23:20:33.133Z,111.67
2019-05-18T23:23:01.656Z,109.80
2019-05-18T23:25:30.191Z,109.67
2019-05-18T23:27:58.772Z,111.20
2019-05-18T23:30:28.323Z,111.77
2019-05-18T23:32:56.768Z,109.30
2019-05-18T23:35:25.261Z,109.03
2019-05-18T23:37:53.703Z,111.10
2019-05-18T23:40:23.821Z,110.07
2019-05-18T23:42:53.185Z,109.87
2019-05-18T23:45:24.784Z,110.07
2019-05-18T23:47:53.262Z,112.60
2019-05-18T23:50:21.745Z,107.97
2019-05-18T23:52:50.225Z,107.40
2019-05-18T23:55:18.713Z,107.70
2019-05-18T23:57:47.217Z,109.13
